Terminal Aerodrome Forecast
Issued by NWS Twin Cities, MN

Home | Current Version | Previous Version | Graphics & Text | Print | Product List | Glossary On
Versions: 1 2 3 4 5 6 7 8 9 10 11 12 13
485
FTUS43 KMPX 172320
TAFEAU
TAF
KEAU 172320Z 1800/1824 19007KT P6SM SKC
     FM180400 23006KT P6SM SKC
     FM180900 27004KT P6SM SKC
     FM181900 25006KT P6SM SCT200=

USA.gov is the U.S. government's official web portal to all federal, state and local government web resources and services.